createdAt,value
2022-08-21T00:00:21.501Z,17.27
2022-08-21T00:03:05.706Z,17.37
2022-08-21T00:05:36.253Z,17.28
2022-08-21T00:08:03.445Z,17.33
2022-08-21T00:10:30.528Z,17.41
2022-08-21T00:12:57.298Z,17.27
2022-08-21T00:15:27.813Z,17.20
2022-08-21T00:17:55.407Z,17.19
2022-08-21T00:20:22.985Z,17.18
2022-08-21T00:22:50.757Z,17.29
2022-08-21T00:25:19.696Z,17.30
2022-08-21T00:27:47.541Z,17.01
2022-08-21T00:30:22.052Z,17.13
2022-08-21T00:32:50.104Z,16.95
2022-08-21T00:35:19.045Z,16.85
2022-08-21T00:37:45.430Z,16.92
2022-08-21T00:40:16.706Z,16.96
2022-08-21T00:42:44.082Z,16.88
2022-08-21T00:45:19.758Z,16.70
2022-08-21T00:47:46.125Z,16.68
2022-08-21T00:50:15.044Z,16.87
2022-08-21T00:52:50.136Z,16.92
2022-08-21T00:55:17.585Z,16.66
2022-08-21T00:57:50.466Z,16.72
2022-08-21T01:00:22.342Z,16.68
2022-08-21T01:02:48.791Z,16.66
2022-08-21T01:05:15.676Z,16.67
2022-08-21T01:07:42.786Z,16.65
2022-08-21T01:10:09.932Z,16.64
2022-08-21T01:12:47.291Z,16.60
2022-08-21T01:15:15.792Z,16.53
2022-08-21T01:17:42.447Z,16.57
2022-08-21T01:20:13.329Z,16.22
2022-08-21T01:22:39.847Z,16.39
2022-08-21T01:25:08.160Z,16.36
2022-08-21T01:27:34.825Z,16.22
2022-08-21T01:30:10.175Z,16.37
2022-08-21T01:32:36.980Z,16.33
2022-08-21T01:35:04.631Z,16.28
2022-08-21T01:37:31.268Z,16.24
2022-08-21T01:39:57.760Z,16.38
2022-08-21T01:42:24.273Z,16.42
2022-08-21T01:44:50.841Z,16.37
2022-08-21T01:47:23.272Z,16.24
2022-08-21T01:49:49.824Z,16.23
2022-08-21T01:52:16.373Z,16.31
2022-08-21T01:54:43.182Z,16.07
2022-08-21T01:57:10.951Z,16.22
2022-08-21T01:59:38.105Z,16.04
2022-08-21T02:02:05.431Z,16.10
2022-08-21T02:04:33.559Z,16.05
2022-08-21T02:07:01.425Z,16.18
2022-08-21T02:09:28.581Z,15.91
2022-08-21T02:11:56.014Z,16.00
2022-08-21T02:14:32.195Z,15.87
2022-08-21T02:17:05.227Z,16.03
2022-08-21T02:19:38.357Z,15.94
2022-08-21T02:22:09.212Z,15.83
2022-08-21T02:24:36.826Z,15.77
2022-08-21T02:27:16.480Z,15.65
2022-08-21T02:29:46.817Z,15.40
2022-08-21T02:32:15.739Z,15.47
2022-08-21T02:34:42.278Z,15.56
2022-08-21T02:37:08.729Z,15.56
2022-08-21T02:39:35.282Z,15.54
2022-08-21T02:42:01.780Z,15.61
2022-08-21T02:44:34.513Z,15.65
2022-08-21T02:47:01.318Z,15.54
2022-08-21T02:49:27.727Z,15.41
2022-08-21T02:51:54.159Z,15.41
2022-08-21T02:54:20.601Z,15.46
2022-08-21T02:56:47.043Z,15.44
2022-08-21T02:59:13.539Z,15.52
2022-08-21T03:01:40.337Z,15.68
2022-08-21T03:04:06.754Z,15.61
2022-08-21T03:06:34.655Z,15.40
2022-08-21T03:09:01.673Z,15.51
2022-08-21T03:11:28.120Z,15.38
2022-08-21T03:13:54.522Z,15.37
2022-08-21T03:16:21.591Z,15.37
2022-08-21T03:18:48.243Z,15.47
2022-08-21T03:21:14.680Z,14.97
2022-08-21T03:23:42.854Z,15.19
2022-08-21T03:26:09.978Z,15.12
2022-08-21T03:28:37.311Z,14.98
2022-08-21T03:31:03.931Z,15.19
2022-08-21T03:33:30.362Z,15.29
2022-08-21T03:36:05.313Z,15.11
2022-08-21T03:38:33.700Z,14.95
2022-08-21T03:41:00.988Z,15.07
2022-08-21T03:43:28.030Z,15.16
2022-08-21T03:45:59.033Z,14.89
2022-08-21T03:48:25.483Z,14.75
2022-08-21T03:50:53.831Z,14.89
2022-08-21T03:53:20.370Z,14.82
2022-08-21T03:55:50.470Z,14.68
2022-08-21T03:58:18.938Z,14.99
2022-08-21T04:00:47.672Z,14.79
2022-08-21T04:03:14.239Z,14.88
2022-08-21T04:05:41.853Z,14.84
2022-08-21T04:08:08.351Z,14.70
2022-08-21T04:10:37.396Z,14.84
2022-08-21T04:13:04.872Z,14.87
2022-08-21T04:15:31.344Z,14.79
2022-08-21T04:17:57.940Z,14.77
2022-08-21T04:20:25.089Z,14.68
2022-08-21T04:22:52.556Z,14.74
2022-08-21T04:25:22.046Z,14.80
2022-08-21T04:27:48.570Z,14.62
2022-08-21T04:30:16.400Z,14.73
2022-08-21T04:32:44.965Z,14.80
2022-08-21T04:35:12.510Z,14.49
2022-08-21T04:37:41.579Z,14.48
2022-08-21T04:40:10.988Z,14.74
2022-08-21T04:42:46.500Z,14.60
2022-08-21T04:45:22.911Z,14.63
2022-08-21T04:47:53.210Z,14.70
2022-08-21T04:50:23.736Z,14.37
2022-08-21T04:53:04.330Z,14.49
2022-08-21T04:55:31.436Z,14.48
2022-08-21T04:57:58.056Z,14.54
2022-08-21T05:00:25.899Z,14.51
2022-08-21T05:02:57.413Z,14.40
2022-08-21T05:05:24.207Z,14.52
2022-08-21T05:07:51.092Z,14.56
2022-08-21T05:10:17.639Z,14.63
2022-08-21T05:12:45.947Z,14.67
2022-08-21T05:15:13.818Z,14.73
2022-08-21T05:17:41.910Z,14.73
2022-08-21T05:20:10.629Z,14.70
2022-08-21T05:22:37.570Z,14.63
2022-08-21T05:25:10.104Z,14.75
2022-08-21T05:27:37.682Z,14.76
2022-08-21T05:30:08.472Z,14.80
2022-08-21T05:32:35.112Z,14.69
2022-08-21T05:35:01.971Z,14.78
2022-08-21T05:37:28.421Z,14.82
2022-08-21T05:40:20.096Z,14.82
2022-08-21T05:42:41.678Z,14.85
2022-08-21T05:45:08.378Z,14.89
2022-08-21T05:47:34.819Z,14.88
2022-08-21T05:50:01.219Z,14.89
2022-08-21T05:52:27.659Z,14.91
2022-08-21T05:54:57.004Z,14.83
2022-08-21T05:57:24.130Z,14.99
2022-08-21T05:59:51.334Z,14.83
2022-08-21T06:02:19.610Z,15.17
2022-08-21T06:04:46.136Z,15.07
2022-08-21T06:07:13.246Z,15.13
2022-08-21T06:09:39.832Z,15.29
2022-08-21T06:12:11.735Z,15.36
2022-08-21T06:14:41.278Z,15.35
2022-08-21T06:17:10.365Z,15.50
2022-08-21T06:19:37.670Z,15.72
2022-08-21T06:22:04.364Z,15.66
2022-08-21T06:24:31.371Z,15.73
2022-08-21T06:26:57.882Z,15.75
2022-08-21T06:29:25.524Z,15.92
2022-08-21T06:31:52.340Z,15.96
2022-08-21T06:34:19.468Z,16.10
2022-08-21T06:36:46.139Z,16.21
2022-08-21T06:39:24.983Z,16.41
2022-08-21T06:41:57.185Z,16.51
2022-08-21T06:44:28.624Z,16.54
2022-08-21T06:46:55.031Z,16.61
2022-08-21T06:49:21.706Z,16.71
2022-08-21T06:51:48.507Z,16.80
2022-08-21T06:54:15.031Z,16.89
2022-08-21T06:56:41.585Z,17.01
2022-08-21T06:59:08.038Z,17.07
2022-08-21T07:01:34.574Z,17.18
2022-08-21T07:04:01.070Z,17.28
2022-08-21T07:06:27.483Z,17.38
2022-08-21T07:08:55.567Z,17.49
2022-08-21T07:11:25.768Z,17.53
2022-08-21T07:13:54.986Z,17.51
2022-08-21T07:16:22.649Z,17.67
2022-08-21T07:18:49.478Z,17.70
2022-08-21T07:21:16.666Z,17.77
2022-08-21T07:23:46.368Z,17.88
2022-08-21T07:26:14.657Z,17.95
2022-08-21T07:28:41.123Z,18.08
2022-08-21T07:31:09.832Z,18.15
2022-08-21T07:33:37.004Z,18.27
2022-08-21T07:36:04.498Z,18.35
2022-08-21T07:38:30.903Z,18.41
2022-08-21T07:41:00.706Z,18.53
2022-08-21T07:43:27.470Z,18.62
2022-08-21T07:45:54.904Z,18.68
2022-08-21T07:48:24.839Z,18.77
2022-08-21T07:50:52.085Z,18.88
2022-08-21T07:53:18.567Z,19.02
2022-08-21T07:55:45.361Z,19.10
2022-08-21T07:58:11.856Z,19.19
2022-08-21T08:00:38.329Z,19.25
2022-08-21T08:03:05.050Z,19.37
2022-08-21T08:05:32.944Z,19.51
2022-08-21T08:07:59.729Z,19.63
2022-08-21T08:10:27.376Z,19.69
2022-08-21T08:12:55.553Z,19.75
2022-08-21T08:15:26.384Z,19.85
2022-08-21T08:17:53.299Z,19.91
2022-08-21T08:20:20.830Z,19.99
2022-08-21T08:22:50.250Z,20.12
2022-08-21T08:25:18.634Z,20.19
2022-08-21T08:27:45.106Z,20.33
2022-08-21T08:30:14.023Z,20.47
2022-08-21T08:32:41.157Z,20.57
2022-08-21T08:35:08.520Z,20.65
2022-08-21T08:37:38.615Z,20.74
2022-08-21T08:40:29.970Z,20.86
2022-08-21T08:42:56.909Z,20.99
2022-08-21T08:45:27.139Z,21.11
2022-08-21T08:47:59.519Z,21.27
2022-08-21T08:50:40.344Z,21.39
2022-08-21T08:53:12.637Z,21.52
2022-08-21T08:55:46.674Z,21.64
2022-08-21T08:58:19.479Z,21.70
2022-08-21T09:00:50.242Z,21.81
2022-08-21T09:03:17.893Z,21.89
2022-08-21T09:05:50.872Z,21.97
2022-08-21T09:08:50.498Z,22.12
2022-08-21T09:11:29.441Z,22.17
2022-08-21T09:14:18.470Z,22.20
2022-08-21T09:17:10.565Z,22.34
2022-08-21T09:19:58.403Z,22.50
2022-08-21T09:22:33.765Z,22.57
2022-08-21T09:25:24.019Z,22.77
2022-08-21T09:27:51.629Z,22.84
2022-08-21T09:30:20.300Z,22.93
2022-08-21T09:32:46.687Z,22.96
2022-08-21T09:35:20.631Z,23.04
2022-08-21T09:37:55.316Z,23.14
2022-08-21T09:40:36.487Z,23.30
2022-08-21T09:43:07.863Z,23.37
2022-08-21T09:45:35.947Z,23.44
2022-08-21T09:48:26.208Z,23.45
2022-08-21T09:50:53.874Z,23.47
2022-08-21T09:53:31.505Z,23.57
2022-08-21T09:56:25.062Z,23.68
2022-08-21T09:58:52.446Z,23.82
2022-08-21T10:01:24.280Z,23.95
2022-08-21T10:04:04.176Z,24.11
2022-08-21T10:06:30.605Z,24.24
2022-08-21T10:09:16.966Z,24.32
2022-08-21T10:12:11.142Z,24.41
2022-08-21T10:15:12.923Z,24.51
2022-08-21T10:17:51.400Z,24.52
2022-08-21T10:20:27.787Z,24.65
2022-08-21T10:23:00.271Z,24.86
2022-08-21T10:25:32.011Z,24.99
2022-08-21T10:28:13.826Z,25.05
2022-08-21T10:30:56.977Z,25.11
2022-08-21T10:33:33.364Z,25.18
2022-08-21T10:36:14.748Z,25.27
2022-08-21T10:39:26.073Z,25.42
2022-08-21T10:42:18.312Z,25.54
2022-08-21T10:45:23.564Z,25.65
2022-08-21T10:48:00.389Z,25.74
2022-08-21T10:50:37.308Z,25.84
2022-08-21T10:53:15.651Z,25.95
2022-08-21T10:55:48.780Z,26.06
2022-08-21T10:58:23.204Z,26.11
2022-08-21T11:00:56.549Z,26.25
2022-08-21T11:04:01.632Z,26.30
2022-08-21T11:06:32.612Z,26.38
2022-08-21T11:09:20.704Z,26.46
2022-08-21T11:12:14.177Z,26.47
2022-08-21T11:15:03.771Z,26.60
2022-08-21T11:17:56.417Z,26.72
2022-08-21T11:20:34.565Z,26.87
2022-08-21T11:23:12.838Z,26.97
2022-08-21T11:25:45.278Z,26.97
2022-08-21T11:28:24.480Z,27.02
2022-08-21T11:31:09.647Z,26.97
2022-08-21T11:33:59.720Z,27.12
2022-08-21T11:36:34.696Z,27.11
2022-08-21T11:39:45.255Z,27.17
2022-08-21T11:42:36.348Z,27.19
2022-08-21T11:45:19.572Z,27.25
2022-08-21T11:48:42.934Z,27.34
2022-08-21T11:51:16.583Z,27.34
2022-08-21T11:54:09.819Z,27.47
2022-08-21T11:56:46.356Z,27.52
2022-08-21T11:59:21.735Z,27.56
2022-08-21T12:01:51.658Z,27.50
2022-08-21T12:04:28.108Z,27.33
2022-08-21T12:06:56.572Z,27.33
2022-08-21T12:09:32.677Z,27.50
2022-08-21T12:12:23.423Z,27.50
2022-08-21T12:14:52.010Z,27.55
2022-08-21T12:17:22.247Z,27.53
2022-08-21T12:20:15.456Z,27.62
2022-08-21T12:22:42.345Z,27.55
2022-08-21T12:25:12.386Z,27.65
2022-08-21T12:27:53.920Z,27.74
2022-08-21T12:30:28.348Z,27.60
2022-08-21T12:32:59.023Z,27.43
2022-08-21T12:35:32.270Z,27.53
2022-08-21T12:38:18.675Z,27.38
2022-08-21T12:40:51.618Z,27.29
2022-08-21T12:43:22.731Z,27.46
2022-08-21T12:45:51.881Z,27.45
2022-08-21T12:48:30.219Z,27.59
2022-08-21T12:51:06.124Z,27.69
2022-08-21T12:53:54.204Z,27.80
2022-08-21T12:56:23.377Z,27.79
2022-08-21T12:58:53.360Z,27.78
2022-08-21T13:01:31.554Z,27.81
2022-08-21T13:04:05.024Z,27.84
2022-08-21T13:06:38.661Z,27.86
2022-08-21T13:09:10.732Z,27.83
2022-08-21T13:11:37.512Z,27.82
2022-08-21T13:14:18.521Z,27.75
2022-08-21T13:16:46.389Z,27.74
2022-08-21T13:19:23.465Z,27.80
2022-08-21T13:21:51.124Z,27.84
2022-08-21T13:24:42.839Z,27.80
2022-08-21T13:27:25.009Z,27.80
2022-08-21T13:30:04.215Z,27.46
2022-08-21T13:32:34.049Z,27.58
2022-08-21T13:35:09.716Z,27.64
2022-08-21T13:37:40.532Z,27.57
2022-08-21T13:40:10.391Z,27.55
2022-08-21T13:42:40.896Z,27.58
2022-08-21T13:45:14.199Z,27.52
2022-08-21T13:47:41.081Z,27.47
2022-08-21T13:50:08.563Z,27.44
2022-08-21T13:52:48.601Z,27.33
2022-08-21T13:55:17.721Z,27.34
2022-08-21T13:57:50.247Z,27.27
2022-08-21T14:00:26.810Z,27.19
2022-08-21T14:03:01.008Z,27.27
2022-08-21T14:05:30.320Z,27.15
2022-08-21T14:08:13.106Z,27.06
2022-08-21T14:10:46.498Z,26.93
2022-08-21T14:13:38.194Z,26.83
2022-08-21T14:16:13.332Z,26.91
2022-08-21T14:18:51.499Z,26.74
2022-08-21T14:21:29.008Z,26.62
2022-08-21T14:24:40.348Z,26.59
2022-08-21T14:27:08.358Z,26.54
2022-08-21T14:29:38.479Z,26.51
2022-08-21T14:32:21.404Z,26.48
2022-08-21T14:34:48.461Z,26.42
2022-08-21T14:37:14.876Z,26.34
2022-08-21T14:39:45.049Z,26.30
2022-08-21T14:42:12.648Z,26.25
2022-08-21T14:44:39.071Z,26.24
2022-08-21T14:47:05.706Z,26.15
2022-08-21T14:49:32.744Z,26.10
2022-08-21T14:51:59.465Z,26.01
2022-08-21T14:54:32.419Z,25.96
2022-08-21T14:57:07.151Z,25.87
2022-08-21T14:59:34.520Z,25.80
2022-08-21T15:02:04.399Z,25.82
2022-08-21T15:04:31.643Z,25.82
2022-08-21T15:06:58.053Z,25.81
2022-08-21T15:09:24.841Z,25.72
2022-08-21T15:11:57.113Z,25.69
2022-08-21T15:14:29.022Z,25.65
2022-08-21T15:16:55.868Z,25.57
2022-08-21T15:19:22.713Z,25.56
2022-08-21T15:21:49.378Z,25.55
2022-08-21T15:24:16.718Z,25.52
2022-08-21T15:26:44.335Z,25.52
2022-08-21T15:29:11.157Z,25.51
2022-08-21T15:31:51.611Z,25.51
2022-08-21T15:34:18.328Z,25.44
2022-08-21T15:36:44.758Z,25.47
2022-08-21T15:39:11.185Z,25.45
2022-08-21T15:41:37.687Z,25.43
2022-08-21T15:44:04.187Z,25.38
2022-08-21T15:46:30.674Z,25.36
2022-08-21T15:48:59.861Z,25.34
2022-08-21T15:51:26.497Z,25.32
2022-08-21T15:53:52.916Z,25.30
2022-08-21T15:56:50.783Z,25.28
2022-08-21T15:59:22.640Z,25.30
2022-08-21T16:01:51.534Z,25.26
2022-08-21T16:04:28.255Z,25.25
2022-08-21T16:07:01.048Z,25.19
2022-08-21T16:09:31.817Z,25.21
2022-08-21T16:12:01.016Z,25.16
2022-08-21T16:14:30.473Z,25.09
2022-08-21T16:16:57.216Z,25.07
2022-08-21T16:19:23.636Z,25.06
2022-08-21T16:21:50.058Z,25.04
2022-08-21T16:24:16.511Z,25.00
2022-08-21T16:26:43.187Z,24.95
2022-08-21T16:29:10.119Z,24.92
2022-08-21T16:31:36.666Z,24.95
2022-08-21T16:34:03.195Z,24.95
2022-08-21T16:36:29.834Z,24.92
2022-08-21T16:38:57.953Z,24.90
2022-08-21T16:41:28.861Z,24.86
2022-08-21T16:43:55.417Z,24.85
2022-08-21T16:46:23.073Z,24.85
2022-08-21T16:48:50.147Z,24.81
2022-08-21T16:51:17.261Z,24.84
2022-08-21T16:53:43.840Z,24.83
2022-08-21T16:56:12.135Z,24.78
2022-08-21T16:58:42.254Z,24.75
2022-08-21T17:01:12.103Z,24.72
2022-08-21T17:03:42.102Z,24.71
2022-08-21T17:06:10.104Z,24.69
2022-08-21T17:08:36.522Z,24.67
2022-08-21T17:11:05.907Z,24.67
2022-08-21T17:13:32.498Z,24.64
2022-08-21T17:15:59.146Z,24.65
2022-08-21T17:18:26.606Z,24.59
2022-08-21T17:20:53.588Z,24.58
2022-08-21T17:23:20.397Z,24.53
2022-08-21T17:25:52.664Z,24.53
2022-08-21T17:28:25.975Z,24.52
2022-08-21T17:30:54.163Z,24.49
2022-08-21T17:33:22.947Z,24.46
2022-08-21T17:35:49.367Z,24.45
2022-08-21T17:38:15.812Z,24.40
2022-08-21T17:40:42.524Z,24.36
2022-08-21T17:43:11.662Z,24.28
2022-08-21T17:45:40.471Z,24.13
2022-08-21T17:48:07.617Z,24.08
2022-08-21T17:50:34.781Z,24.10
2022-08-21T17:53:01.252Z,24.07
2022-08-21T17:55:29.278Z,23.90
2022-08-21T17:57:57.118Z,23.99
2022-08-21T18:00:26.313Z,23.85
2022-08-21T18:03:01.628Z,23.74
2022-08-21T18:05:28.438Z,23.66
2022-08-21T18:07:54.851Z,23.68
2022-08-21T18:10:21.650Z,23.69
2022-08-21T18:12:48.247Z,23.62
2022-08-21T18:15:16.902Z,23.59
2022-08-21T18:17:46.948Z,23.50
2022-08-21T18:20:15.308Z,23.47
2022-08-21T18:22:42.531Z,23.46
2022-08-21T18:25:09.240Z,23.37
2022-08-21T18:27:35.735Z,23.30
2022-08-21T18:30:02.504Z,23.33
2022-08-21T18:32:31.709Z,23.26
2022-08-21T18:35:02.218Z,23.24
2022-08-21T18:37:29.674Z,23.21
2022-08-21T18:39:56.282Z,23.15
2022-08-21T18:42:28.365Z,23.15
2022-08-21T18:45:00.390Z,23.00
2022-08-21T18:47:33.508Z,23.00
2022-08-21T18:49:59.941Z,22.98
2022-08-21T18:52:28.474Z,22.90
2022-08-21T18:55:17.907Z,22.81
2022-08-21T18:57:46.665Z,22.64
2022-08-21T19:00:24.314Z,22.69
2022-08-21T19:02:51.455Z,22.65
2022-08-21T19:05:19.743Z,22.56
2022-08-21T19:07:47.203Z,22.64
2022-08-21T19:10:27.796Z,22.61
2022-08-21T19:12:57.177Z,22.55
2022-08-21T19:15:24.018Z,22.50
2022-08-21T19:17:51.936Z,22.41
2022-08-21T19:20:25.835Z,22.40
2022-08-21T19:22:53.872Z,22.41
2022-08-21T19:25:20.358Z,22.34
2022-08-21T19:32:13.568Z,22.24
2022-08-21T19:34:41.293Z,22.22
2022-08-21T19:37:11.868Z,22.22
2022-08-21T19:39:42.482Z,22.25
2022-08-21T19:42:13.770Z,22.11
2022-08-21T19:44:40.674Z,22.19
2022-08-21T19:47:18.832Z,22.21
2022-08-21T19:49:50.513Z,22.23
2022-08-21T19:52:17.492Z,22.23
2022-08-21T19:54:44.525Z,22.21
2022-08-21T19:57:12.026Z,22.16
2022-08-21T19:59:40.579Z,22.17
2022-08-21T20:02:09.228Z,22.18
2022-08-21T20:04:36.513Z,22.12
2022-08-21T20:07:03.933Z,22.13
2022-08-21T20:09:31.201Z,22.09
2022-08-21T20:12:09.767Z,22.06
2022-08-21T20:14:42.913Z,22.07
2022-08-21T20:17:11.216Z,22.06
2022-08-21T20:19:39.539Z,22.07
2022-08-21T20:22:06.874Z,22.06
2022-08-21T20:24:34.033Z,22.13
2022-08-21T20:27:02.499Z,22.02
2022-08-21T20:29:36.225Z,21.93
2022-08-21T20:32:07.888Z,21.94
2022-08-21T20:34:39.190Z,21.89
2022-08-21T20:37:05.720Z,21.84
2022-08-21T20:39:32.369Z,21.77
2022-08-21T20:41:58.845Z,21.74
2022-08-21T20:44:29.237Z,21.69
2022-08-21T20:46:57.680Z,21.65
2022-08-21T20:49:33.374Z,21.57
2022-08-21T20:52:00.880Z,21.58
2022-08-21T20:54:35.644Z,21.50
2022-08-21T20:57:34.256Z,21.37
2022-08-21T21:00:14.599Z,21.38
2022-08-21T21:02:58.663Z,21.35
2022-08-21T21:05:33.583Z,21.21
2022-08-21T21:08:08.220Z,21.25
2022-08-21T21:10:59.972Z,21.12
2022-08-21T21:13:32.884Z,21.11
2022-08-21T21:16:04.701Z,21.03
2022-08-21T21:19:01.150Z,20.98
2022-08-21T21:24:58.433Z,20.89
2022-08-21T21:27:42.896Z,20.75
2022-08-21T21:30:26.993Z,20.76
2022-08-21T21:32:53.718Z,20.56
2022-08-21T21:35:33.193Z,20.55
2022-08-21T21:38:15.363Z,20.54
2022-08-21T21:40:48.048Z,20.61
2022-08-21T21:43:42.716Z,20.48
2022-08-21T21:46:48.528Z,20.55
2022-08-21T21:49:43.267Z,20.44
2022-08-21T21:52:55.342Z,20.18
2022-08-21T21:55:57.581Z,20.15
2022-08-21T21:58:37.469Z,20.11
2022-08-21T22:01:23.927Z,20.10
2022-08-21T22:04:17.043Z,20.08
2022-08-21T22:07:08.055Z,20.20
2022-08-21T22:09:45.456Z,20.17
2022-08-21T22:13:09.478Z,20.18
2022-08-21T22:15:31.044Z,20.00
2022-08-21T22:18:10.045Z,20.01
2022-08-21T22:20:44.152Z,19.97
2022-08-21T22:23:16.340Z,20.00
2022-08-21T22:25:45.982Z,19.98
2022-08-21T22:28:25.499Z,19.78
2022-08-21T22:30:55.179Z,19.71
2022-08-21T22:33:28.315Z,19.87
2022-08-21T22:35:58.669Z,19.84
2022-08-21T22:38:27.779Z,19.68
2022-08-21T22:41:31.334Z,19.66
2022-08-21T22:44:03.838Z,19.67
2022-08-21T22:46:47.350Z,19.47
2022-08-21T22:49:22.357Z,19.48
2022-08-21T22:51:57.127Z,19.52
2022-08-21T22:54:33.285Z,19.46
2022-08-21T22:57:06.529Z,19.50
2022-08-21T22:59:52.086Z,19.50
2022-08-21T23:02:28.593Z,19.58
2022-08-21T23:04:59.206Z,19.59
2022-08-21T23:07:49.925Z,19.50
2022-08-21T23:10:26.243Z,19.21
2022-08-21T23:13:00.801Z,19.38
2022-08-21T23:15:35.721Z,19.34
2022-08-21T23:18:16.007Z,19.25
2022-08-21T23:21:13.900Z,19.29
2022-08-21T23:24:05.273Z,19.12
2022-08-21T23:26:59.628Z,19.26
2022-08-21T23:29:47.461Z,19.15
2022-08-21T23:32:39.200Z,19.07
2022-08-21T23:35:20.247Z,18.96
2022-08-21T23:38:00.154Z,19.03
2022-08-21T23:41:37.169Z,19.09
2022-08-21T23:44:11.130Z,19.02
2022-08-21T23:46:44.361Z,19.03
2022-08-21T23:49:44.122Z,18.94
2022-08-21T23:52:33.479Z,18.62
2022-08-21T23:55:35.520Z,18.74
2022-08-21T23:58:14.399Z,18.76
